CDT,Max TemperatureF,Mean TemperatureF,Min TemperatureF,Max Dew PointF,MeanDew PointF,Min DewpointF,Max Humidity, Mean Humidity, Min Humidity, Max Sea Level PressureIn, Mean Sea Level PressureIn, Min Sea Level PressureIn, Max VisibilityMiles, Mean VisibilityMiles, Min VisibilityMiles, Max Wind SpeedMPH, Mean Wind SpeedMPH, Max Gust SpeedMPH,PrecipitationIn, CloudCover, Events, WindDirDegrees
2013-3-1,50,41,32,29,27,24,85,62,39,30.10,30.06,30.02,10,10,8,21,9,25,0.00,1,,310
2013-3-2,42,37,31,28,25,23,75,61,46,30.14,30.10,30.06,10,9,7,17,9,22,0.00,7,,299
2013-3-3,48,40,32,26,23,16,78,53,28,30.18,30.14,30.09,10,10,7,14,9,23,0.00,4,,313
2013-3-4,65,46,27,43,31,21,92,59,25,30.21,30.12,30.04,10,8,2,12,5,22,0.00,1,,179
2013-3-5,74,56,38,59,49,34,83,66,49,30.10,29.98,29.84,10,8,0,26,9,37,0.19,6,Fog-Rain-Thunderstorm,237
2013-3-6,51,42,33,34,26,22,92,64,36,30.26,30.18,30.08,10,10,9,26,11,36,0.00,0,,319
2013-3-7,63,46,28,35,28,24,92,59,25,30.32,30.26,30.22,10,10,10,13,3,17,0.00,0,,337
2013-3-8,71,50,29,36,28,15,92,52,12,30.33,30.25,30.20,10,10,9,9,2,14,0.00,0,,6
2013-3-9,71,55,38,38,34,30,92,58,23,30.27,30.20,30.12,10,9,4,15,6,22,0.00,0,,136
2013-3-10,76,65,53,49,45,34,72,54,36,30.13,30.07,30.00,10,10,9,21,10,26,0.00,0,,155
2013-3-11,50,41,32,57,52,40,85,62,39,30.00,29.89,29.83,10,6,1,21,9,25,0.00,7,Rain,308
2013-3-12,62,49,36,39,33,27,92,60,27,30.16,30.06,29.94,10,10,10,20,8,24,0.00,0,,326
2013-3-13,61,47,32,35,27,17,96,58,19,30.30,30.24,30.17,10,10,10,24,8,30,0.00,0,,313
2013-3-14,60,46,31,33,22,14,82,49,16,30.43,30.34,30.28,10,10,10,16,6,21,0.00,0,,349
2013-3-15,75,54,32,42,36,30,96,61,25,30.30,30.20,30.09,10,10,10,16,6,22,0.00,0,,220
2013-3-16,77,60,43,49,45,41,93,62,31,30.12,30.05,29.96,10,10,7,18,7,25,0.00,0,,217
2013-3-17,71,59,47,59,53,46,100,79,57,30.06,30.00,29.94,10,6,0,13,4,16,0.00,3,Fog,177
2013-3-18,81,68,55,62,57,54,93,72,51,29.98,29.91,29.78,10,8,1,31,9,39,0.45,6,Rain-Thunderstorm,166
2013-3-19,73,59,45,56,46,28,93,57,20,30.06,29.99,29.84,10,8,0,20,7,23,0.14,2,Fog-Rain-Thunderstorm,7
2013-3-20,63,51,39,39,28,20,83,53,22,30.14,30.05,29.98,10,10,10,15,6,20,0.00,0,,358
2013-3-21,60,46,32,32,24,15,89,54,18,30.05,29.99,29.93,10,10,10,16,6,21,T,1,,324
2013-3-22,50,47,43,44,34,21,93,66,39,30.06,29.99,29.95,10,9,2,13,5,17,0.20,7,Rain,67
2013-3-23,60,54,48,55,51,43,93,82,71,29.95,29.80,29.65,10,7,1,16,6,20,0.96,8,Rain-Thunderstorm,82
2013-3-24,74,58,42,57,52,29,93,71,49,29.86,29.62,29.53,10,7,0,26,9,40,0.05,6,Fog-Rain,296
2013-3-25,54,45,35,28,23,17,60,43,26,30.19,30.02,29.88,10,10,10,24,12,35,0.00,1,,303
2013-3-26,51,41,30,26,23,21,75,55,34,30.35,30.26,30.18,10,10,10,24,9,31,0.00,1,,317
2013-3-27,58,42,25,32,25,21,85,55,25,30.42,30.35,30.29,10,10,8,15,3,21,0.00,0,,340
2013-3-28,68,49,30,36,30,25,92,56,20,30.38,30.31,30.25,10,9,6,14,2,21,0.00,0,,341
2013-3-29,74,54,34,39,33,30,100,60,20,30.34,30.26,30.18,10,9,5,14,5,22,0.00,1,,212
2013-3-30,77,62,47,54,48,40,86,62,38,30.21,30.13,30.05,10,10,7,17,6,25,0.00,3,,204
2013-3-31,79,67,55,61,57,53,100,71,42,30.06,29.98,29.87,10,6,0,20,4,22,0.75,6,Fog-Rain-Thunderstorm,242